createdAt,value
2023-01-11T00:01:08.871Z,97712.00
2023-01-11T00:03:37.264Z,97704.00
2023-01-11T00:06:07.860Z,97713.00
2023-01-11T00:08:36.253Z,97717.00
2023-01-11T00:11:04.887Z,97714.00
2023-01-11T00:13:33.163Z,97720.00
2023-01-11T00:16:08.981Z,97704.00
2023-01-11T00:18:38.466Z,97706.00
2023-01-11T00:21:07.814Z,97711.00
2023-01-11T00:23:37.439Z,97710.00
2023-01-11T00:26:06.647Z,97718.00
2023-01-11T00:28:35.152Z,97704.00
2023-01-11T00:31:03.773Z,97713.00
2023-01-11T00:33:33.343Z,97703.00
2023-01-11T00:36:01.652Z,97698.00
2023-01-11T00:38:46.833Z,97704.00
2023-01-11T00:41:34.463Z,97690.00
2023-01-11T00:44:20.704Z,97693.00
2023-01-11T00:47:06.565Z,97685.00
2023-01-11T00:49:36.326Z,97683.00
2023-01-11T00:52:08.909Z,97679.00
2023-01-11T00:54:37.835Z,97665.00
2023-01-11T00:57:07.395Z,97671.00
2023-01-11T00:59:35.809Z,97657.00
2023-01-11T01:02:04.650Z,97667.00
2023-01-11T01:04:33.401Z,97662.00
2023-01-11T01:07:02.888Z,97667.00
2023-01-11T01:09:31.130Z,97664.00
2023-01-11T01:11:59.253Z,97663.00
2023-01-11T01:14:26.739Z,97670.00
2023-01-11T01:16:55.810Z,97670.00
2023-01-11T01:19:25.851Z,97664.00
2023-01-11T01:21:54.134Z,97657.00
2023-01-11T01:24:24.041Z,97649.00
2023-01-11T01:26:52.380Z,97655.00
2023-01-11T01:29:20.684Z,97646.00
2023-01-11T01:31:48.950Z,97645.00
2023-01-11T01:34:17.629Z,97647.00
2023-01-11T01:36:45.782Z,97648.00
2023-01-11T01:39:14.152Z,97638.00
2023-01-11T01:41:43.694Z,97633.00
2023-01-11T01:44:57.789Z,97629.00
2023-01-11T01:47:34.526Z,97625.00
2023-01-11T01:50:09.512Z,97630.00
2023-01-11T01:52:38.142Z,97629.00
2023-01-11T01:55:13.554Z,97627.00
2023-01-11T01:57:46.325Z,97615.00
2023-01-11T02:00:15.567Z,97620.00
2023-01-11T02:02:45.836Z,97614.00
2023-01-11T02:05:16.823Z,97622.00
2023-01-11T02:07:46.907Z,97616.00
2023-01-11T02:10:18.242Z,97604.00
2023-01-11T02:12:52.793Z,97607.00
2023-01-11T02:15:24.044Z,97590.00
2023-01-11T02:17:52.541Z,97598.00
2023-01-11T02:20:56.086Z,97606.00
2023-01-11T02:24:07.124Z,97616.00
2023-01-11T02:27:19.843Z,97603.00
2023-01-11T02:30:06.370Z,97591.00
2023-01-11T02:32:48.461Z,97578.00
2023-01-11T02:35:28.943Z,97578.00
2023-01-11T02:38:06.395Z,97582.00
2023-01-11T02:40:51.852Z,97569.00
2023-01-11T02:43:47.228Z,97574.00
2023-01-11T02:46:28.323Z,97561.00
2023-01-11T02:49:09.440Z,97563.00
2023-01-11T02:51:43.684Z,97554.00
2023-01-11T02:54:14.640Z,97546.00
2023-01-11T02:56:46.576Z,97552.00
2023-01-11T02:59:21.363Z,97568.00
2023-01-11T03:01:55.602Z,97568.00
2023-01-11T03:04:27.594Z,97564.00
2023-01-11T03:07:14.197Z,97561.00
2023-01-11T03:09:57.238Z,97560.00
2023-01-11T03:12:54.530Z,97551.00
2023-01-11T03:15:55.818Z,97547.00
2023-01-11T03:18:44.660Z,97528.00
2023-01-11T03:21:27.491Z,97535.00
2023-01-11T03:24:08.905Z,97538.00
2023-01-11T03:26:50.678Z,97533.00
2023-01-11T03:29:33.533Z,97526.00
2023-01-11T03:32:18.115Z,97525.00
2023-01-11T03:35:00.958Z,97537.00
2023-01-11T03:37:36.276Z,97534.00
2023-01-11T03:40:15.210Z,97530.00
2023-01-11T03:43:06.591Z,97531.00
2023-01-11T03:45:40.696Z,97532.00
2023-01-11T03:48:15.044Z,97524.00
2023-01-11T03:50:46.603Z,97501.00
2023-01-11T03:53:18.638Z,97499.00
2023-01-11T03:55:53.993Z,97509.00
2023-01-11T03:58:22.226Z,97514.00
2023-01-11T04:00:52.030Z,97500.00
2023-01-11T04:03:20.353Z,97518.00
2023-01-11T04:05:57.826Z,97503.00
2023-01-11T04:08:26.232Z,97521.00
2023-01-11T04:10:54.774Z,97513.00
2023-01-11T04:13:22.929Z,97512.00
2023-01-11T04:15:51.059Z,97521.00
2023-01-11T04:18:19.130Z,97510.00
2023-01-11T04:20:49.285Z,97495.00
2023-01-11T04:23:17.396Z,97511.00
2023-01-11T04:25:45.753Z,97498.00
2023-01-11T04:28:13.867Z,97512.00
2023-01-11T04:30:41.955Z,97523.00
2023-01-11T04:33:13.093Z,97501.00
2023-01-11T04:35:41.967Z,97495.00
2023-01-11T04:38:13.881Z,97503.00
2023-01-11T04:40:41.989Z,97495.00
2023-01-11T04:43:09.149Z,97502.00
2023-01-11T04:45:37.356Z,97511.00
2023-01-11T04:48:06.252Z,97492.00
2023-01-11T04:50:34.435Z,97495.00
2023-01-11T04:53:02.641Z,97512.00
2023-01-11T04:55:32.130Z,97498.00
2023-01-11T04:58:00.298Z,97499.00
2023-01-11T05:00:28.423Z,97501.00
2023-01-11T05:03:00.314Z,97489.00
2023-01-11T05:05:28.413Z,97477.00
2023-01-11T05:07:56.585Z,97485.00
2023-01-11T05:10:24.722Z,97487.00
2023-01-11T05:12:54.141Z,97489.00
2023-01-11T05:15:22.218Z,97495.00
2023-01-11T05:17:50.289Z,97486.00
2023-01-11T05:20:18.936Z,97478.00
2023-01-11T05:22:47.037Z,97472.00
2023-01-11T05:25:15.196Z,97485.00
2023-01-11T05:27:43.492Z,97473.00
2023-01-11T05:30:14.103Z,97460.00
2023-01-11T05:32:42.235Z,97466.00
2023-01-11T05:35:11.266Z,97460.00
2023-01-11T05:37:39.895Z,97474.00
2023-01-11T05:40:10.072Z,97467.00
2023-01-11T05:42:38.517Z,97465.00
2023-01-11T05:45:26.272Z,97449.00
2023-01-11T05:47:56.560Z,97451.00
2023-01-11T05:50:24.937Z,97446.00
2023-01-11T05:52:53.168Z,97437.00
2023-01-11T05:55:21.390Z,97432.00
2023-01-11T05:57:50.674Z,97426.00
2023-01-11T06:00:19.968Z,97417.00
2023-01-11T06:02:48.240Z,97406.00
2023-01-11T06:05:18.143Z,97409.00
2023-01-11T06:07:46.232Z,97408.00
2023-01-11T06:10:14.392Z,97404.00
2023-01-11T06:12:42.573Z,97412.00
2023-01-11T06:15:11.396Z,97415.00
2023-01-11T06:17:41.568Z,97418.00
2023-01-11T06:20:12.204Z,97409.00
2023-01-11T06:22:41.704Z,97425.00
2023-01-11T06:25:10.818Z,97422.00
2023-01-11T06:27:38.969Z,97424.00
2023-01-11T06:30:08.901Z,97434.00
2023-01-11T06:32:37.237Z,97416.00
2023-01-11T06:35:06.314Z,97418.00
2023-01-11T06:37:34.455Z,97420.00
2023-01-11T06:40:04.069Z,97420.00
2023-01-11T06:42:32.177Z,97418.00
2023-01-11T06:45:00.392Z,97429.00
2023-01-11T06:47:28.579Z,97434.00
2023-01-11T06:49:56.753Z,97422.00
2023-01-11T06:52:24.892Z,97430.00
2023-01-11T06:54:53.022Z,97435.00
2023-01-11T06:57:22.442Z,97429.00
2023-01-11T06:59:50.530Z,97441.00
2023-01-11T07:02:18.767Z,97441.00
2023-01-11T07:04:46.952Z,97431.00
2023-01-11T07:07:15.048Z,97437.00
2023-01-11T07:09:43.876Z,97432.00
2023-01-11T07:12:12.056Z,97411.00
2023-01-11T07:14:41.522Z,97415.00
2023-01-11T07:17:09.614Z,97416.00
2023-01-11T07:19:37.724Z,97404.00
2023-01-11T07:22:05.863Z,97407.00
2023-01-11T07:24:34.171Z,97406.00
2023-01-11T07:27:03.055Z,97407.00
2023-01-11T07:29:31.141Z,97421.00
2023-01-11T07:32:00.633Z,97423.00
2023-01-11T07:34:28.692Z,97418.00
2023-01-11T07:36:56.912Z,97415.00
2023-01-11T07:39:34.887Z,97409.00
2023-01-11T07:42:29.643Z,97409.00
2023-01-11T07:44:57.915Z,97404.00
2023-01-11T07:47:27.525Z,97400.00
2023-01-11T07:49:55.783Z,97398.00
2023-01-11T07:52:23.896Z,97406.00
2023-01-11T07:54:52.011Z,97412.00
2023-01-11T07:57:20.127Z,97410.00
2023-01-11T07:59:48.264Z,97396.00
2023-01-11T08:02:16.491Z,97405.00
2023-01-11T08:04:46.180Z,97406.00
2023-01-11T08:07:14.274Z,97390.00
2023-01-11T08:09:42.398Z,97399.00
2023-01-11T08:12:28.070Z,97400.00
2023-01-11T08:14:56.226Z,97411.00
2023-01-11T08:17:24.355Z,97409.00
2023-01-11T08:19:55.760Z,97395.00
2023-01-11T08:22:24.006Z,97385.00
2023-01-11T08:24:52.153Z,97395.00
2023-01-11T08:27:20.293Z,97386.00
2023-01-11T08:29:48.464Z,97376.00
2023-01-11T08:32:16.581Z,97373.00
2023-01-11T08:34:44.788Z,97399.00
2023-01-11T08:37:14.460Z,97386.00
2023-01-11T08:39:43.183Z,97392.00
2023-01-11T08:42:11.428Z,97376.00
2023-01-11T08:44:39.558Z,97379.00
2023-01-11T08:47:07.806Z,97377.00
2023-01-11T08:49:35.956Z,97386.00
2023-01-11T08:52:04.208Z,97400.00
2023-01-11T08:54:33.683Z,97391.00
2023-01-11T08:57:01.853Z,97408.00
2023-01-11T08:59:29.989Z,97397.00
2023-01-11T09:01:58.202Z,97405.00
2023-01-11T09:04:26.504Z,97401.00
2023-01-11T09:06:54.937Z,97389.00
2023-01-11T09:09:23.091Z,97385.00
2023-01-11T09:11:56.616Z,97384.00
2023-01-11T09:14:27.452Z,97399.00
2023-01-11T09:16:58.308Z,97379.00
2023-01-11T09:19:26.695Z,97367.00
2023-01-11T09:21:59.578Z,97390.00
2023-01-11T09:24:27.793Z,97383.00
2023-01-11T09:26:59.772Z,97386.00
2023-01-11T09:29:28.071Z,97384.00
2023-01-11T09:31:56.246Z,97378.00
2023-01-11T09:34:25.354Z,97377.00
2023-01-11T09:36:53.545Z,97377.00
2023-01-11T09:39:25.728Z,97380.00
2023-01-11T09:42:35.729Z,97398.00
2023-01-11T09:45:15.848Z,97380.00
2023-01-11T09:47:49.120Z,97392.00
2023-01-11T09:50:23.478Z,97380.00
2023-01-11T09:52:55.733Z,97377.00
2023-01-11T09:55:36.531Z,97386.00
2023-01-11T09:58:32.443Z,97365.00
2023-01-11T10:01:10.546Z,97365.00
2023-01-11T10:04:33.034Z,97361.00
2023-01-11T10:07:45.923Z,97345.00
2023-01-11T10:18:33.480Z,97336.00
2023-01-11T10:19:40.223Z,97339.00
2023-01-11T10:22:17.869Z,97322.00
2023-01-11T10:24:51.751Z,97311.00
2023-01-11T10:27:30.065Z,97315.00
2023-01-11T10:30:19.823Z,97310.00
2023-01-11T10:33:01.567Z,97304.00
2023-01-11T10:35:58.923Z,97319.00
2023-01-11T10:39:03.159Z,97300.00
2023-01-11T10:41:43.153Z,97308.00
2023-01-11T10:44:23.415Z,97301.00
2023-01-11T10:46:55.524Z,97293.00
2023-01-11T10:49:40.123Z,97299.00
2023-01-11T10:52:29.345Z,97300.00
2023-01-11T10:54:58.844Z,97295.00
2023-01-11T10:58:01.658Z,97295.00
2023-01-11T11:00:47.261Z,97307.00
2023-01-11T11:04:06.185Z,97286.00
2023-01-11T11:06:45.737Z,97292.00
2023-01-11T11:09:28.007Z,97283.00
2023-01-11T11:12:01.236Z,97284.00
2023-01-11T11:14:37.385Z,97273.00
2023-01-11T11:17:23.236Z,97275.00
2023-01-11T11:19:53.946Z,97261.00
2023-01-11T11:22:22.080Z,97275.00
2023-01-11T11:24:56.236Z,97271.00
2023-01-11T11:27:31.074Z,97274.00
2023-01-11T11:29:59.251Z,97272.00
2023-01-11T11:32:32.548Z,97266.00
2023-01-11T11:35:02.425Z,97280.00
2023-01-11T11:37:36.033Z,97265.00
2023-01-11T11:40:05.636Z,97255.00
2023-01-11T11:42:33.884Z,97260.00
2023-01-11T11:45:18.051Z,97256.00
2023-01-11T11:48:03.415Z,97258.00
2023-01-11T11:50:44.603Z,97241.00
2023-01-11T11:53:31.236Z,97242.00
2023-01-11T11:56:01.141Z,97236.00
2023-01-11T11:58:29.348Z,97230.00
2023-01-11T12:00:57.539Z,97232.00
2023-01-11T12:03:30.493Z,97234.00
2023-01-11T12:06:04.362Z,97227.00
2023-01-11T12:08:36.269Z,97226.00
2023-01-11T12:11:08.587Z,97226.00
2023-01-11T12:13:39.814Z,97219.00
2023-01-11T12:16:22.878Z,97228.00
2023-01-11T12:18:51.052Z,97212.00
2023-01-11T12:21:24.293Z,97225.00
2023-01-11T12:24:13.761Z,97226.00
2023-01-11T12:27:00.589Z,97239.00
2023-01-11T12:29:47.320Z,97230.00
2023-01-11T12:32:52.955Z,97212.00
2023-01-11T12:35:41.971Z,97236.00
2023-01-11T12:38:52.385Z,97230.00
2023-01-11T12:41:52.704Z,97208.00
2023-01-11T12:44:47.870Z,97212.00
2023-01-11T12:48:06.056Z,97212.00
2023-01-11T12:50:41.819Z,97219.00
2023-01-11T12:53:35.774Z,97208.00
2023-01-11T12:56:49.675Z,97216.00
2023-01-11T12:59:38.807Z,97220.00
2023-01-11T13:02:34.886Z,97225.00
2023-01-11T13:05:23.512Z,97200.00
2023-01-11T13:08:10.344Z,97208.00
2023-01-11T13:10:57.053Z,97211.00
2023-01-11T13:13:36.449Z,97212.00
2023-01-11T13:16:17.061Z,97222.00
2023-01-11T13:18:57.187Z,97202.00
2023-01-11T13:21:34.217Z,97220.00
2023-01-11T13:24:09.951Z,97215.00
2023-01-11T13:26:42.231Z,97209.00
2023-01-11T13:29:21.316Z,97204.00
2023-01-11T13:31:52.651Z,97216.00
2023-01-11T13:34:27.983Z,97208.00
2023-01-11T13:37:03.294Z,97215.00
2023-01-11T13:39:43.153Z,97217.00
2023-01-11T13:42:18.597Z,97209.00
2023-01-11T13:44:57.490Z,97208.00
2023-01-11T13:47:36.287Z,97217.00
2023-01-11T13:50:13.251Z,97219.00
2023-01-11T13:53:03.368Z,97210.00
2023-01-11T13:55:56.277Z,97216.00
2023-01-11T13:58:31.415Z,97229.00
2023-01-11T14:01:10.588Z,97228.00
2023-01-11T14:03:50.793Z,97216.00
2023-01-11T14:06:53.197Z,97223.00
2023-01-11T14:09:46.557Z,97227.00
2023-01-11T14:12:30.915Z,97214.00
2023-01-11T14:15:22.102Z,97223.00
2023-01-11T14:18:22.803Z,97218.00
2023-01-11T14:21:04.688Z,97243.00
2023-01-11T14:23:46.940Z,97231.00
2023-01-11T14:26:55.597Z,97248.00
2023-01-11T14:30:15.081Z,97247.00
2023-01-11T14:33:33.585Z,97257.00
2023-01-11T14:36:45.699Z,97246.00
2023-01-11T14:39:40.388Z,97257.00
2023-01-11T14:42:49.593Z,97260.00
2023-01-11T14:45:32.009Z,97254.00
2023-01-11T14:48:28.870Z,97264.00
2023-01-11T14:51:23.933Z,97263.00
2023-01-11T14:54:05.151Z,97259.00
2023-01-11T14:56:52.787Z,97257.00
2023-01-11T14:59:38.254Z,97266.00
2023-01-11T15:02:33.632Z,97275.00
2023-01-11T15:05:10.447Z,97283.00
2023-01-11T15:07:43.376Z,97290.00
2023-01-11T15:10:45.961Z,97287.00
2023-01-11T15:13:20.910Z,97282.00
2023-01-11T15:16:08.290Z,97284.00
2023-01-11T15:18:46.447Z,97277.00
2023-01-11T15:21:22.508Z,97274.00
2023-01-11T15:23:54.345Z,97284.00
2023-01-11T15:26:25.836Z,97283.00
2023-01-11T15:28:56.817Z,97287.00
2023-01-11T15:31:44.162Z,97278.00
2023-01-11T15:34:28.231Z,97286.00
2023-01-11T15:37:29.443Z,97286.00
2023-01-11T15:40:02.860Z,97306.00
2023-01-11T15:43:14.158Z,97293.00
2023-01-11T15:46:31.587Z,97291.00
2023-01-11T15:50:06.885Z,97300.00
2023-01-11T15:53:45.316Z,97317.00
2023-01-11T15:56:54.125Z,97328.00
2023-01-11T16:00:11.439Z,97330.00
2023-01-11T16:03:32.482Z,97331.00
2023-01-11T16:06:16.750Z,97332.00
2023-01-11T16:08:59.708Z,97342.00
2023-01-11T16:11:44.113Z,97353.00
2023-01-11T16:14:52.019Z,97350.00
2023-01-11T16:17:25.993Z,97355.00
2023-01-11T16:19:56.991Z,97363.00
2023-01-11T16:22:29.025Z,97367.00
2023-01-11T16:25:01.862Z,97370.00
2023-01-11T16:27:35.545Z,97358.00
2023-01-11T16:30:04.223Z,97384.00
2023-01-11T16:32:33.411Z,97392.00
2023-01-11T16:35:04.787Z,97379.00
2023-01-11T16:37:38.383Z,97386.00
2023-01-11T16:40:16.874Z,97371.00
2023-01-11T16:42:51.217Z,97382.00
2023-01-11T16:45:23.573Z,97387.00
2023-01-11T16:48:07.333Z,97394.00
2023-01-11T16:50:36.470Z,97386.00
2023-01-11T16:53:07.154Z,97391.00
2023-01-11T16:55:39.993Z,97383.00
2023-01-11T16:58:25.628Z,97403.00
2023-01-11T17:01:06.177Z,97401.00
2023-01-11T17:03:36.853Z,97402.00
2023-01-11T17:06:20.744Z,97399.00
2023-01-11T17:08:52.198Z,97414.00
2023-01-11T17:11:36.407Z,97422.00
2023-01-11T17:14:49.645Z,97424.00
2023-01-11T17:17:19.644Z,97418.00
2023-01-11T17:19:50.598Z,97424.00
2023-01-11T17:22:23.659Z,97442.00
2023-01-11T17:24:55.629Z,97449.00
2023-01-11T17:27:30.380Z,97467.00
2023-01-11T17:30:01.675Z,97462.00
2023-01-11T17:32:37.341Z,97454.00
2023-01-11T17:35:11.668Z,97460.00
2023-01-11T17:37:40.891Z,97472.00
2023-01-11T17:40:22.987Z,97469.00
2023-01-11T17:43:09.449Z,97469.00
2023-01-11T17:45:40.222Z,97474.00
2023-01-11T17:48:14.348Z,97470.00
2023-01-11T17:50:49.906Z,97476.00
2023-01-11T17:53:25.629Z,97473.00
2023-01-11T17:55:56.951Z,97485.00
2023-01-11T17:58:27.367Z,97491.00
2023-01-11T18:01:22.131Z,97483.00
2023-01-11T18:03:53.095Z,97488.00
2023-01-11T18:06:28.559Z,97486.00
2023-01-11T18:08:59.138Z,97504.00
2023-01-11T18:11:30.709Z,97511.00
2023-01-11T18:14:02.024Z,97511.00
2023-01-11T18:16:31.826Z,97518.00
2023-01-11T18:19:00.913Z,97510.00
2023-01-11T18:21:42.253Z,97520.00
2023-01-11T18:24:36.144Z,97522.00
2023-01-11T18:27:30.674Z,97527.00
2023-01-11T18:30:06.445Z,97517.00
2023-01-11T18:32:42.583Z,97509.00
2023-01-11T18:35:19.006Z,97526.00
2023-01-11T18:37:48.175Z,97533.00
2023-01-11T18:40:18.733Z,97529.00
2023-01-11T18:42:50.514Z,97531.00
2023-01-11T18:45:20.152Z,97514.00
2023-01-11T18:47:52.640Z,97523.00
2023-01-11T18:50:26.398Z,97516.00
2023-01-11T18:52:54.699Z,97529.00
2023-01-11T18:55:22.805Z,97523.00
2023-01-11T18:57:51.044Z,97536.00
2023-01-11T19:00:20.546Z,97537.00
2023-01-11T19:02:48.932Z,97533.00
2023-01-11T19:05:19.823Z,97548.00
2023-01-11T19:07:49.239Z,97552.00
2023-01-11T19:10:20.235Z,97559.00
2023-01-11T19:12:48.497Z,97558.00
2023-01-11T19:15:17.328Z,97563.00
2023-01-11T19:17:45.664Z,97563.00
2023-01-11T19:20:14.153Z,97586.00
2023-01-11T19:22:43.895Z,97580.00
2023-01-11T19:25:12.494Z,97573.00
2023-01-11T19:27:40.808Z,97579.00
2023-01-11T19:30:10.920Z,97583.00
2023-01-11T19:32:39.695Z,97599.00
2023-01-11T19:35:13.196Z,97599.00
2023-01-11T19:37:42.639Z,97593.00
2023-01-11T19:40:12.403Z,97597.00
2023-01-11T19:42:40.601Z,97605.00
2023-01-11T19:45:10.438Z,97601.00
2023-01-11T19:47:39.931Z,97607.00
2023-01-11T19:50:09.207Z,97597.00
2023-01-11T19:52:37.486Z,97598.00
2023-01-11T19:55:08.144Z,97587.00
2023-01-11T19:57:36.939Z,97602.00
2023-01-11T20:00:06.413Z,97611.00
2023-01-11T20:02:40.121Z,97608.00
2023-01-11T20:05:09.045Z,97618.00
2023-01-11T20:07:37.242Z,97621.00
2023-01-11T20:10:07.345Z,97624.00
2023-01-11T20:12:35.618Z,97619.00
2023-01-11T20:15:04.192Z,97621.00
2023-01-11T20:17:33.372Z,97619.00
2023-01-11T20:20:01.660Z,97633.00
2023-01-11T20:22:29.863Z,97641.00
2023-01-11T20:24:58.100Z,97628.00
2023-01-11T20:27:27.752Z,97624.00
2023-01-11T20:29:56.062Z,97626.00
2023-01-11T20:32:40.207Z,97638.00
2023-01-11T20:35:11.167Z,97648.00
2023-01-11T20:37:39.453Z,97634.00
2023-01-11T20:40:09.119Z,97647.00
2023-01-11T20:42:38.729Z,97653.00
2023-01-11T20:45:08.554Z,97655.00
2023-01-11T20:47:37.462Z,97661.00
2023-01-11T20:50:06.465Z,97662.00
2023-01-11T20:52:34.779Z,97663.00
2023-01-11T20:55:03.051Z,97659.00
2023-01-11T20:57:31.153Z,97662.00
2023-01-11T21:00:00.654Z,97660.00
2023-01-11T21:02:28.957Z,97664.00
2023-01-11T21:04:57.282Z,97667.00
2023-01-11T21:07:25.482Z,97680.00
2023-01-11T21:09:53.630Z,97674.00
2023-01-11T21:12:21.827Z,97684.00
2023-01-11T21:14:50.239Z,97683.00
2023-01-11T21:17:20.989Z,97687.00
2023-01-11T21:19:50.401Z,97695.00
2023-01-11T21:22:18.604Z,97699.00
2023-01-11T21:24:48.341Z,97707.00
2023-01-11T21:27:16.606Z,97713.00
2023-01-11T21:29:44.732Z,97707.00
2023-01-11T21:32:13.057Z,97718.00
2023-01-11T21:34:42.603Z,97724.00
2023-01-11T21:37:10.768Z,97726.00
2023-01-11T21:39:38.942Z,97722.00
2023-01-11T21:42:07.497Z,97708.00
2023-01-11T21:44:35.706Z,97737.00
2023-01-11T21:47:06.625Z,97748.00
2023-01-11T21:49:35.010Z,97733.00
2023-01-11T21:52:04.711Z,97742.00
2023-01-11T21:54:33.149Z,97736.00
2023-01-11T21:57:01.324Z,97747.00
2023-01-11T21:59:30.014Z,97745.00
2023-01-11T22:02:00.654Z,97739.00
2023-01-11T22:04:28.828Z,97732.00
2023-01-11T22:06:59.624Z,97740.00
2023-01-11T22:09:29.341Z,97717.00
2023-01-11T22:11:57.465Z,97724.00
2023-01-11T22:14:25.815Z,97731.00
2023-01-11T22:16:54.138Z,97740.00
2023-01-11T22:19:22.428Z,97737.00
2023-01-11T22:21:50.646Z,97727.00
2023-01-11T22:24:18.851Z,97713.00
2023-01-11T22:26:48.485Z,97718.00
2023-01-11T22:29:16.748Z,97725.00
2023-01-11T22:31:49.579Z,97717.00
2023-01-11T22:34:19.369Z,97735.00
2023-01-11T22:36:47.779Z,97747.00
2023-01-11T22:39:19.356Z,97737.00
2023-01-11T22:41:49.840Z,97751.00
2023-01-11T22:44:19.408Z,97750.00
2023-01-11T22:46:48.126Z,97759.00
2023-01-11T22:49:17.368Z,97756.00
2023-01-11T22:51:46.183Z,97762.00
2023-01-11T22:54:14.982Z,97766.00
2023-01-11T22:56:43.734Z,97755.00
2023-01-11T22:59:13.327Z,97777.00
2023-01-11T23:01:43.435Z,97777.00
2023-01-11T23:04:14.947Z,97772.00
2023-01-11T23:06:44.048Z,97772.00
2023-01-11T23:09:16.325Z,97755.00
2023-01-11T23:12:03.769Z,97755.00
2023-01-11T23:14:34.014Z,97744.00
2023-01-11T23:17:06.226Z,97750.00
2023-01-11T23:19:35.678Z,97749.00
2023-01-11T23:22:05.007Z,97745.00
2023-01-11T23:24:33.573Z,97741.00
2023-01-11T23:27:01.917Z,97744.00
2023-01-11T23:29:30.164Z,97766.00
2023-01-11T23:31:59.875Z,97754.00
2023-01-11T23:34:28.320Z,97757.00
2023-01-11T23:36:56.621Z,97749.00
2023-01-11T23:39:24.783Z,97760.00
2023-01-11T23:42:10.630Z,97748.00
2023-01-11T23:44:38.747Z,97747.00
2023-01-11T23:47:22.078Z,97749.00
2023-01-11T23:49:51.276Z,97747.00
2023-01-11T23:52:21.680Z,97742.00
2023-01-11T23:54:50.242Z,97750.00
2023-01-11T23:57:20.427Z,97765.00
2023-01-11T23:59:48.856Z,97765.00
